sensor_id;sensor_type;location;lat;lon;timestamp;pressure;altitude;pressure_sealevel;temperature;humidity
61205;BME280;47068;55.780;37.520;2023-04-26T00:01:58;98596.97;;;14.18;65.77
61205;BME280;47068;55.780;37.520;2023-04-26T00:04:25;98618.09;;;14.33;65.92
61205;BME280;47068;55.780;37.520;2023-04-26T00:06:53;98589.38;;;14.15;66.46
61205;BME280;47068;55.780;37.520;2023-04-26T00:09:18;98590.59;;;14.19;67.02
61205;BME280;47068;55.780;37.520;2023-04-26T00:11:44;98578.69;;;14.15;66.51
61205;BME280;47068;55.780;37.520;2023-04-26T00:14:10;98601.66;;;14.29;66.90
61205;BME280;47068;55.780;37.520;2023-04-26T00:16:35;98581.19;;;14.10;68.19
61205;BME280;47068;55.780;37.520;2023-04-26T00:19:01;98598.81;;;14.24;68.49
61205;BME280;47068;55.780;37.520;2023-04-26T00:21:26;98600.66;;;14.24;68.66
61205;BME280;47068;55.780;37.520;2023-04-26T00:23:52;98598.38;;;14.27;68.36
61205;BME280;47068;55.780;37.520;2023-04-26T00:26:18;98590.22;;;14.15;68.86
61205;BME280;47068;55.780;37.520;2023-04-26T00:28:44;98565.97;;;14.04;69.02
61205;BME280;47068;55.780;37.520;2023-04-26T00:31:15;98596.34;;;14.23;69.29
61205;BME280;47068;55.780;37.520;2023-04-26T00:33:42;98590.38;;;14.20;69.35
61205;BME280;47068;55.780;37.520;2023-04-26T00:36:08;98575.06;;;13.96;69.18
61205;BME280;47068;55.780;37.520;2023-04-26T00:38:33;98554.94;;;13.87;69.08
61205;BME280;47068;55.780;37.520;2023-04-26T00:40:59;98588.16;;;14.11;69.54
61205;BME280;47068;55.780;37.520;2023-04-26T00:43:24;98578.06;;;14.13;69.10
61205;BME280;47068;55.780;37.520;2023-04-26T00:45:50;98563.94;;;13.99;69.26
61205;BME280;47068;55.780;37.520;2023-04-26T00:48:16;98571.31;;;14.04;69.91
61205;BME280;47068;55.780;37.520;2023-04-26T00:50:42;98557.97;;;13.97;69.94
61205;BME280;47068;55.780;37.520;2023-04-26T00:53:08;98517.59;;;13.74;70.10
61205;BME280;47068;55.780;37.520;2023-04-26T00:55:34;98570.91;;;14.07;70.35
61205;BME280;47068;55.780;37.520;2023-04-26T00:58:00;98560.63;;;14.04;70.50
61205;BME280;47068;55.780;37.520;2023-04-26T01:00:25;98556.09;;;14.04;71.05
61205;BME280;47068;55.780;37.520;2023-04-26T01:02:51;98513.47;;;13.71;71.39
61205;BME280;47068;55.780;37.520;2023-04-26T01:05:17;98553.03;;;14.01;71.48
61205;BME280;47068;55.780;37.520;2023-04-26T01:07:43;98554.88;;;14.00;71.57
61205;BME280;47068;55.780;37.520;2023-04-26T01:10:09;98552.63;;;13.97;71.31
61205;BME280;47068;55.780;37.520;2023-04-26T01:12:35;98549.53;;;14.00;71.20
61205;BME280;47068;55.780;37.520;2023-04-26T01:15:02;98551.59;;;13.98;70.91
61205;BME280;47068;55.780;37.520;2023-04-26T01:17:28;98533.41;;;13.82;71.37
61205;BME280;47068;55.780;37.520;2023-04-26T01:19:53;98541.78;;;13.86;72.09
61205;BME280;47068;55.780;37.520;2023-04-26T01:22:19;98530.91;;;13.87;71.66
61205;BME280;47068;55.780;37.520;2023-04-26T01:24:50;98529.25;;;13.86;71.51
61205;BME280;47068;55.780;37.520;2023-04-26T01:27:16;98528.00;;;13.89;71.66
61205;BME280;47068;55.780;37.520;2023-04-26T01:29:42;98534.97;;;13.96;71.64
61205;BME280;47068;55.780;37.520;2023-04-26T01:32:07;98534.16;;;13.96;71.64
61205;BME280;47068;55.780;37.520;2023-04-26T01:34:33;98534.34;;;13.94;72.22
61205;BME280;47068;55.780;37.520;2023-04-26T01:36:59;98501.06;;;13.84;72.07
61205;BME280;47068;55.780;37.520;2023-04-26T01:39:26;98514.59;;;13.95;71.80
61205;BME280;47068;55.780;37.520;2023-04-26T01:41:52;98515.44;;;13.96;72.49
61205;BME280;47068;55.780;37.520;2023-04-26T01:44:17;98503.50;;;13.92;72.28
61205;BME280;47068;55.780;37.520;2023-04-26T01:46:43;98469.66;;;13.79;71.43
61205;BME280;47068;55.780;37.520;2023-04-26T01:49:09;98504.78;;;13.89;71.70
61205;BME280;47068;55.780;37.520;2023-04-26T01:51:34;98494.28;;;13.88;72.37
61205;BME280;47068;55.780;37.520;2023-04-26T01:54:00;98483.84;;;13.79;71.11
61205;BME280;47068;55.780;37.520;2023-04-26T01:56:26;98499.06;;;13.79;71.89
61205;BME280;47068;55.780;37.520;2023-04-26T01:58:51;98486.34;;;13.74;71.89
61205;BME280;47068;55.780;37.520;2023-04-26T02:01:17;98495.78;;;13.77;72.58
61205;BME280;47068;55.780;37.520;2023-04-26T02:03:42;98496.19;;;13.80;72.13
61205;BME280;47068;55.780;37.520;2023-04-26T02:06:08;98460.28;;;13.63;71.89
61205;BME280;47068;55.780;37.520;2023-04-26T02:08:35;98490.00;;;13.80;72.53
61205;BME280;47068;55.780;37.520;2023-04-26T02:11:00;98473.81;;;13.75;72.22
61205;BME280;47068;55.780;37.520;2023-04-26T02:13:26;98456.31;;;13.72;72.83
61205;BME280;47068;55.780;37.520;2023-04-26T02:15:51;98468.81;;;13.78;72.05
61205;BME280;47068;55.780;37.520;2023-04-26T02:18:17;98442.19;;;13.65;72.64
61205;BME280;47068;55.780;37.520;2023-04-26T02:20:46;98465.53;;;13.76;72.31
61205;BME280;47068;55.780;37.520;2023-04-26T02:23:11;98449.56;;;13.63;72.54
61205;BME280;47068;55.780;37.520;2023-04-26T02:25:37;98462.69;;;13.71;72.97
61205;BME280;47068;55.780;37.520;2023-04-26T02:28:04;98476.47;;;13.75;72.89
61205;BME280;47068;55.780;37.520;2023-04-26T02:30:29;98468.44;;;13.75;72.66
61205;BME280;47068;55.780;37.520;2023-04-26T02:32:56;98465.81;;;13.68;73.89
61205;BME280;47068;55.780;37.520;2023-04-26T02:35:22;98460.22;;;13.70;73.04
61205;BME280;47068;55.780;37.520;2023-04-26T02:37:47;98462.69;;;13.71;73.78
61205;BME280;47068;55.780;37.520;2023-04-26T02:40:14;98446.03;;;13.69;73.51
61205;BME280;47068;55.780;37.520;2023-04-26T02:42:40;98449.94;;;13.73;73.75
61205;BME280;47068;55.780;37.520;2023-04-26T02:45:10;98454.06;;;13.76;72.90
61205;BME280;47068;55.780;37.520;2023-04-26T02:47:36;98430.06;;;13.63;73.17
61205;BME280;47068;55.780;37.520;2023-04-26T02:50:03;98446.03;;;13.69;73.60
61205;BME280;47068;55.780;37.520;2023-04-26T02:52:28;98438.31;;;13.61;73.43
61205;BME280;47068;55.780;37.520;2023-04-26T02:54:54;98444.44;;;13.68;73.31
61205;BME280;47068;55.780;37.520;2023-04-26T02:57:19;98435.84;;;13.60;73.70
61205;BME280;47068;55.780;37.520;2023-04-26T02:59:45;98437.06;;;13.57;73.92
61205;BME280;47068;55.780;37.520;2023-04-26T03:02:11;98447.16;;;13.62;73.99
61205;BME280;47068;55.780;37.520;2023-04-26T03:04:36;98443.88;;;13.53;73.99
61205;BME280;47068;55.780;37.520;2023-04-26T03:07:03;98408.69;;;13.25;74.55
61205;BME280;47068;55.780;37.520;2023-04-26T03:09:28;98440.44;;;13.46;75.16
61205;BME280;47068;55.780;37.520;2023-04-26T03:11:54;98426.47;;;13.44;74.70
61205;BME280;47068;55.780;37.520;2023-04-26T03:14:19;98436.28;;;13.50;74.80
61205;BME280;47068;55.780;37.520;2023-04-26T03:16:45;98434.22;;;13.52;75.00
61205;BME280;47068;55.780;37.520;2023-04-26T03:19:12;98419.06;;;13.46;74.46
61205;BME280;47068;55.780;37.520;2023-04-26T03:21:38;98424.38;;;13.53;74.19
61205;BME280;47068;55.780;37.520;2023-04-26T03:24:04;98423.91;;;13.56;74.35
61205;BME280;47068;55.780;37.520;2023-04-26T03:26:30;98422.50;;;13.53;74.72
61205;BME280;47068;55.780;37.520;2023-04-26T03:28:55;98415.31;;;13.54;74.29
61205;BME280;47068;55.780;37.520;2023-04-26T03:31:20;98416.16;;;13.54;75.16
61205;BME280;47068;55.780;37.520;2023-04-26T03:33:47;98423.53;;;13.52;74.79
61205;BME280;47068;55.780;37.520;2023-04-26T03:36:12;98391.56;;;13.39;74.74
61205;BME280;47068;55.780;37.520;2023-04-26T03:38:37;98420.00;;;13.58;75.29
61205;BME280;47068;55.780;37.520;2023-04-26T03:41:03;98420.63;;;13.60;75.08
61205;BME280;47068;55.780;37.520;2023-04-26T03:43:28;98409.94;;;13.60;75.00
61205;BME280;47068;55.780;37.520;2023-04-26T03:45:54;98407.84;;;13.62;74.28
61205;BME280;47068;55.780;37.520;2023-04-26T03:48:19;98407.09;;;13.55;75.48
61205;BME280;47068;55.780;37.520;2023-04-26T03:50:45;98363.44;;;13.30;75.31
61205;BME280;47068;55.780;37.520;2023-04-26T03:53:11;98404.16;;;13.63;75.18
61205;BME280;47068;55.780;37.520;2023-04-26T03:55:36;98401.31;;;13.58;74.85
61205;BME280;47068;55.780;37.520;2023-04-26T03:58:02;98396.81;;;13.52;74.61
61205;BME280;47068;55.780;37.520;2023-04-26T04:00:40;98399.25;;;13.60;74.93
61205;BME280;47068;55.780;37.520;2023-04-26T04:03:06;98401.09;;;13.60;74.97
61205;BME280;47068;55.780;37.520;2023-04-26T04:05:32;98401.28;;;13.65;75.84
61205;BME280;47068;55.780;37.520;2023-04-26T04:07:57;98399.59;;;13.70;74.92
61205;BME280;47068;55.780;37.520;2023-04-26T04:10:23;98387.53;;;13.61;75.09
61205;BME280;47068;55.780;37.520;2023-04-26T04:12:49;98379.88;;;13.65;74.84
61205;BME280;47068;55.780;37.520;2023-04-26T04:15:15;98399.59;;;13.70;75.36
61205;BME280;47068;55.780;37.520;2023-04-26T04:17:41;98399.16;;;13.73;75.49
61205;BME280;47068;55.780;37.520;2023-04-26T04:20:07;98390.16;;;13.68;75.34
61205;BME280;47068;55.780;37.520;2023-04-26T04:22:33;98397.16;;;13.69;75.23
61205;BME280;47068;55.780;37.520;2023-04-26T04:24:58;98390.16;;;13.68;75.20
61205;BME280;47068;55.780;37.520;2023-04-26T04:27:25;98391.75;;;13.75;75.43
61205;BME280;47068;55.780;37.520;2023-04-26T04:29:51;98395.63;;;13.79;75.72
61205;BME280;47068;55.780;37.520;2023-04-26T04:32:18;98394.75;;;13.86;75.29
61205;BME280;47068;55.780;37.520;2023-04-26T04:34:44;98387.34;;;13.88;74.71
61205;BME280;47068;55.780;37.520;2023-04-26T04:37:09;98380.56;;;13.85;74.85
61205;BME280;47068;55.780;37.520;2023-04-26T04:39:36;98390.78;;;13.95;75.21
61205;BME280;47068;55.780;37.520;2023-04-26T04:42:01;98380.09;;;13.95;74.91
61205;BME280;47068;55.780;37.520;2023-04-26T04:44:27;98384.41;;;13.96;74.94
61205;BME280;47068;55.780;37.520;2023-04-26T04:46:53;98391.56;;;14.02;75.32
61205;BME280;47068;55.780;37.520;2023-04-26T04:49:18;98377.16;;;14.03;74.45
61205;BME280;47068;55.780;37.520;2023-04-26T04:51:44;98387.75;;;14.16;74.92
61205;BME280;47068;55.780;37.520;2023-04-26T04:54:14;98395.94;;;14.21;74.16
61205;BME280;47068;55.780;37.520;2023-04-26T04:56:39;98368.69;;;14.06;74.16
61205;BME280;47068;55.780;37.520;2023-04-26T04:59:05;98390.72;;;14.26;73.87
61205;BME280;47068;55.780;37.520;2023-04-26T05:01:31;98393.03;;;14.23;73.03
61205;BME280;47068;55.780;37.520;2023-04-26T05:03:57;98384.03;;;14.17;73.36
61205;BME280;47068;55.780;37.520;2023-04-26T05:06:22;98353.53;;;14.00;73.37
61205;BME280;47068;55.780;37.520;2023-04-26T05:08:48;98363.50;;;14.11;73.53
61205;BME280;47068;55.780;37.520;2023-04-26T05:11:14;98369.19;;;14.21;73.21
61205;BME280;47068;55.780;37.520;2023-04-26T05:13:39;98379.16;;;14.32;73.54
61205;BME280;47068;55.780;37.520;2023-04-26T05:16:05;98372.34;;;14.36;73.53
61205;BME280;47068;55.780;37.520;2023-04-26T05:18:30;98389.19;;;14.43;73.16
61205;BME280;47068;55.780;37.520;2023-04-26T05:20:56;98386.31;;;14.38;73.20
61205;BME280;47068;55.780;37.520;2023-04-26T05:23:22;98341.25;;;14.17;73.79
61205;BME280;47068;55.780;37.520;2023-04-26T05:25:47;98380.28;;;14.49;73.49
61205;BME280;47068;55.780;37.520;2023-04-26T05:28:13;98370.59;;;14.48;73.38
61205;BME280;47068;55.780;37.520;2023-04-26T05:30:38;98373.88;;;14.50;72.58
61205;BME280;47068;55.780;37.520;2023-04-26T05:33:05;98388.91;;;14.51;73.20
61205;BME280;47068;55.780;37.520;2023-04-26T05:35:31;98385.97;;;14.53;73.49
61205;BME280;47068;55.780;37.520;2023-04-26T05:37:57;98379.16;;;14.57;73.19
61205;BME280;47068;55.780;37.520;2023-04-26T05:40:22;98379.53;;;14.61;72.91
61205;BME280;47068;55.780;37.520;2023-04-26T05:42:49;98380.97;;;14.63;72.52
61205;BME280;47068;55.780;37.520;2023-04-26T05:45:15;98375.38;;;14.65;72.98
61205;BME280;47068;55.780;37.520;2023-04-26T05:47:40;98318.97;;;14.23;72.79
61205;BME280;47068;55.780;37.520;2023-04-26T05:50:06;98374.34;;;14.66;73.53
61205;BME280;47068;55.780;37.520;2023-04-26T05:52:32;98376.84;;;14.61;72.75
61205;BME280;47068;55.780;37.520;2023-04-26T05:54:58;98380.13;;;14.44;73.63
61205;BME280;47068;55.780;37.520;2023-04-26T05:57:23;98372.09;;;15.65;80.98
61205;BME280;47068;55.780;37.520;2023-04-26T05:59:48;98386.81;;;18.28;100.00
61205;BME280;47068;55.780;37.520;2023-04-26T06:02:14;98374.06;;;16.46;100.00
61205;BME280;47068;55.780;37.520;2023-04-26T06:04:40;98394.22;;;15.43;100.00
61205;BME280;47068;55.780;37.520;2023-04-26T06:07:05;98396.00;;;14.82;100.00
61205;BME280;47068;55.780;37.520;2023-04-26T06:09:31;98365.78;;;14.32;100.00
61205;BME280;47068;55.780;37.520;2023-04-26T06:11:57;98405.91;;;14.32;100.00
61205;BME280;47068;55.780;37.520;2023-04-26T06:14:22;98399.56;;;14.27;100.00
61205;BME280;47068;55.780;37.520;2023-04-26T06:16:48;98389.81;;;14.14;100.00
61205;BME280;47068;55.780;37.520;2023-04-26T06:19:13;98398.00;;;14.19;100.00
61205;BME280;47068;55.780;37.520;2023-04-26T06:21:39;98398.66;;;14.14;100.00
61205;BME280;47068;55.780;37.520;2023-04-26T06:24:05;98401.13;;;14.16;100.00
61205;BME280;47068;55.780;37.520;2023-04-26T06:26:31;98394.13;;;14.15;100.00
61205;BME280;47068;55.780;37.520;2023-04-26T06:28:56;98403.75;;;14.23;100.00
61205;BME280;47068;55.780;37.520;2023-04-26T06:31:22;98404.13;;;14.26;100.00
61205;BME280;47068;55.780;37.520;2023-04-26T06:33:47;98391.47;;;14.15;100.00
61205;BME280;47068;55.780;37.520;2023-04-26T06:36:13;98347.31;;;13.81;100.00
61205;BME280;47068;55.780;37.520;2023-04-26T06:38:38;98398.66;;;14.14;100.00
61205;BME280;47068;55.780;37.520;2023-04-26T06:41:04;98416.66;;;14.26;100.00
61205;BME280;47068;55.780;37.520;2023-04-26T06:43:30;98386.25;;;14.20;100.00
61205;BME280;47068;55.780;37.520;2023-04-26T06:45:55;98394.91;;;14.22;100.00
61205;BME280;47068;55.780;37.520;2023-04-26T06:48:21;98378.78;;;14.04;100.00
61205;BME280;47068;55.780;37.520;2023-04-26T06:50:47;98422.53;;;14.16;100.00
61205;BME280;47068;55.780;37.520;2023-04-26T06:53:12;98420.38;;;14.00;100.00
61205;BME280;47068;55.780;37.520;2023-04-26T06:55:38;98413.38;;;13.99;100.00
61205;BME280;47068;55.780;37.520;2023-04-26T06:58:03;98400.66;;;13.94;100.00
61205;BME280;47068;55.780;37.520;2023-04-26T07:00:29;98388.44;;;13.80;100.00
61205;BME280;47068;55.780;37.520;2023-04-26T07:02:54;98418.63;;;14.12;100.00
61205;BME280;47068;55.780;37.520;2023-04-26T07:05:20;98416.72;;;14.19;100.00
61205;BME280;47068;55.780;37.520;2023-04-26T07:07:45;98426.28;;;14.33;100.00
61205;BME280;47068;55.780;37.520;2023-04-26T07:10:12;98420.34;;;14.31;100.00
61205;BME280;47068;55.780;37.520;2023-04-26T07:12:38;98434.81;;;14.48;100.00
61205;BME280;47068;55.780;37.520;2023-04-26T07:15:04;98426.94;;;14.53;100.00
61205;BME280;47068;55.780;37.520;2023-04-26T07:17:31;98430.91;;;14.51;100.00
61205;BME280;47068;55.780;37.520;2023-04-26T07:19:57;98427.28;;;14.64;100.00
61205;BME280;47068;55.780;37.520;2023-04-26T07:22:22;98427.16;;;14.77;100.00
61205;BME280;47068;55.780;37.520;2023-04-26T07:24:48;98422.81;;;14.76;100.00
61205;BME280;47068;55.780;37.520;2023-04-26T07:27:13;98420.81;;;14.71;100.00
61205;BME280;47068;55.780;37.520;2023-04-26T07:29:39;98411.50;;;14.74;100.00
61205;BME280;47068;55.780;37.520;2023-04-26T07:32:04;98433.13;;;14.97;100.00
61205;BME280;47068;55.780;37.520;2023-04-26T07:34:30;98419.72;;;14.79;100.00
61205;BME280;47068;55.780;37.520;2023-04-26T07:36:56;98434.63;;;14.93;100.00
61205;BME280;47068;55.780;37.520;2023-04-26T07:39:22;98440.41;;;15.08;100.00
61205;BME280;47068;55.780;37.520;2023-04-26T07:41:47;98437.81;;;15.20;100.00
61205;BME280;47068;55.780;37.520;2023-04-26T07:44:13;98438.16;;;15.23;100.00
61205;BME280;47068;55.780;37.520;2023-04-26T07:46:38;98432.06;;;15.16;100.00
61205;BME280;47068;55.780;37.520;2023-04-26T07:49:04;98436.38;;;15.35;100.00
61205;BME280;47068;55.780;37.520;2023-04-26T07:51:30;98436.38;;;15.35;100.00
61205;BME280;47068;55.780;37.520;2023-04-26T07:53:56;98445.88;;;15.50;100.00
61205;BME280;47068;55.780;37.520;2023-04-26T07:56:22;98426.03;;;15.39;100.00
61205;BME280;47068;55.780;37.520;2023-04-26T07:58:50;98448.16;;;15.53;99.90
61205;BME280;47068;55.780;37.520;2023-04-26T08:01:16;98443.78;;;15.52;97.75
61205;BME280;47068;55.780;37.520;2023-04-26T08:03:41;98455.06;;;15.60;97.70
61205;BME280;47068;55.780;37.520;2023-04-26T08:06:07;98447.38;;;15.64;97.52
61205;BME280;47068;55.780;37.520;2023-04-26T08:08:33;98453.22;;;15.61;96.08
61205;BME280;47068;55.780;37.520;2023-04-26T08:11:06;98457.38;;;15.57;95.44
61205;BME280;47068;55.780;37.520;2023-04-26T08:13:31;98448.97;;;15.53;95.43
61205;BME280;47068;55.780;37.520;2023-04-26T08:15:57;98439.94;;;15.48;95.33
61205;BME280;47068;55.780;37.520;2023-04-26T08:18:22;98451.84;;;15.52;94.37
61205;BME280;47068;55.780;37.520;2023-04-26T08:20:48;98456.78;;;15.55;94.99
61205;BME280;47068;55.780;37.520;2023-04-26T08:23:13;98461.97;;;15.50;93.08
61205;BME280;47068;55.780;37.520;2023-04-26T08:25:39;98463.53;;;15.57;93.70
61205;BME280;47068;55.780;37.520;2023-04-26T08:28:04;98469.94;;;15.56;92.81
61205;BME280;47068;55.780;37.520;2023-04-26T08:30:32;98470.13;;;15.61;93.20
61205;BME280;47068;55.780;37.520;2023-04-26T08:32:57;98469.72;;;15.58;92.97
61205;BME280;47068;55.780;37.520;2023-04-26T08:35:23;98468.22;;;15.44;91.49
61205;BME280;47068;55.780;37.520;2023-04-26T08:37:48;98477.00;;;15.51;91.49
61205;BME280;47068;55.780;37.520;2023-04-26T08:40:21;98474.88;;;15.59;90.41
61205;BME280;47068;55.780;37.520;2023-04-26T08:42:48;98474.31;;;15.51;88.57
61205;BME280;47068;55.780;37.520;2023-04-26T08:45:13;98482.66;;;15.43;88.15
61205;BME280;47068;55.780;37.520;2023-04-26T08:47:51;98470.63;;;15.33;87.54
61205;BME280;47068;55.780;37.520;2023-04-26T08:50:19;98473.53;;;15.32;89.02
61205;BME280;47068;55.780;37.520;2023-04-26T08:52:47;98446.97;;;15.12;87.36
61205;BME280;47068;55.780;37.520;2023-04-26T08:55:14;98460.97;;;15.14;87.21
61205;BME280;47068;55.780;37.520;2023-04-26T08:57:42;98484.69;;;15.29;87.45
61205;BME280;47068;55.780;37.520;2023-04-26T09:00:10;98479.56;;;15.46;88.07
61205;BME280;47068;55.780;37.520;2023-04-26T09:02:39;98480.31;;;15.53;87.22
61205;BME280;47068;55.780;37.520;2023-04-26T09:05:06;98473.44;;;15.57;87.45
61205;BME280;47068;55.780;37.520;2023-04-26T09:07:34;98481.06;;;15.60;86.60
61205;BME280;47068;55.780;37.520;2023-04-26T09:10:03;98481.78;;;15.67;86.26
61205;BME280;47068;55.780;37.520;2023-04-26T09:12:29;98490.06;;;15.65;85.39
61205;BME280;47068;55.780;37.520;2023-04-26T09:14:54;98488.41;;;15.64;85.50
61205;BME280;47068;55.780;37.520;2023-04-26T09:17:31;98483.81;;;15.53;84.38
61205;BME280;47068;55.780;37.520;2023-04-26T09:19:58;98489.84;;;15.49;83.60
61205;BME280;47068;55.780;37.520;2023-04-26T09:22:34;98492.50;;;15.49;82.94
61205;BME280;47068;55.780;37.520;2023-04-26T09:25:04;98495.63;;;15.46;82.79
61205;BME280;47068;55.780;37.520;2023-04-26T09:27:40;98491.91;;;15.47;82.49
61205;BME280;47068;55.780;37.520;2023-04-26T09:30:10;98492.03;;;15.52;82.44
61205;BME280;47068;55.780;37.520;2023-04-26T09:32:57;98466.16;;;15.27;81.66
61205;BME280;47068;55.780;37.520;2023-04-26T09:35:26;98499.94;;;15.47;82.49
61205;BME280;47068;55.780;37.520;2023-04-26T09:37:59;98460.13;;;15.14;82.04
61205;BME280;47068;55.780;37.520;2023-04-26T09:40:30;98500.25;;;15.20;81.36
61205;BME280;47068;55.780;37.520;2023-04-26T09:43:08;98480.56;;;14.90;81.41
61205;BME280;47068;55.780;37.520;2023-04-26T09:45:56;98510.28;;;15.07;82.05
61205;BME280;47068;55.780;37.520;2023-04-26T09:50:49;98514.66;;;15.01;81.60
61205;BME280;47068;55.780;37.520;2023-04-26T09:53:55;98522.34;;;15.16;80.45
61205;BME280;47068;55.780;37.520;2023-04-26T09:56:20;98505.69;;;15.14;79.73
61205;BME280;47068;55.780;37.520;2023-04-26T10:01:14;98514.25;;;15.41;80.02
61205;BME280;47068;55.780;37.520;2023-04-26T10:03:40;98514.75;;;15.49;79.56
61205;BME280;47068;55.780;37.520;2023-04-26T10:06:07;98501.00;;;15.46;79.19
61205;BME280;47068;55.780;37.520;2023-04-26T10:08:33;98519.88;;;15.51;78.14
61205;BME280;47068;55.780;37.520;2023-04-26T10:11:00;98527.66;;;15.59;78.27
61205;BME280;47068;55.780;37.520;2023-04-26T10:13:31;98525.50;;;15.67;78.15
61205;BME280;47068;55.780;37.520;2023-04-26T10:15:58;98533.78;;;15.66;76.88
61205;BME280;47068;55.780;37.520;2023-04-26T10:18:24;98528.84;;;15.63;77.21
61205;BME280;47068;55.780;37.520;2023-04-26T10:20:52;98530.22;;;15.54;77.33
61205;BME280;47068;55.780;37.520;2023-04-26T10:23:21;98528.63;;;15.46;76.27
61205;BME280;47068;55.780;37.520;2023-04-26T10:25:50;98532.94;;;15.47;76.12
61205;BME280;47068;55.780;37.520;2023-04-26T10:28:17;98537.63;;;15.52;75.04
61205;BME280;47068;55.780;37.520;2023-04-26T10:30:59;98535.41;;;15.49;74.83
61205;BME280;47068;55.780;37.520;2023-04-26T10:33:25;98536.31;;;15.61;74.55
61205;BME280;47068;55.780;37.520;2023-04-26T10:36:06;98544.78;;;15.58;74.02
61205;BME280;47068;55.780;37.520;2023-04-26T10:38:34;98548.06;;;15.42;73.28
61205;BME280;47068;55.780;37.520;2023-04-26T10:41:28;98558.88;;;15.28;74.20
61205;BME280;47068;55.780;37.520;2023-04-26T10:43:55;98553.97;;;15.25;74.50
61205;BME280;47068;55.780;37.520;2023-04-26T10:46:38;98512.56;;;15.03;74.80
61205;BME280;47068;55.780;37.520;2023-04-26T10:49:14;98522.41;;;15.09;74.59
61205;BME280;47068;55.780;37.520;2023-04-26T10:51:49;98566.91;;;15.28;74.34
61205;BME280;47068;55.780;37.520;2023-04-26T10:54:47;98561.34;;;15.30;74.51
61205;BME280;47068;55.780;37.520;2023-04-26T10:57:13;98558.59;;;15.36;74.57
61205;BME280;47068;55.780;37.520;2023-04-26T10:59:38;98554.66;;;15.39;74.71
61205;BME280;47068;55.780;37.520;2023-04-26T11:02:09;98548.06;;;15.42;74.00
61205;BME280;47068;55.780;37.520;2023-04-26T11:04:53;98527.88;;;15.39;72.81
61205;BME280;47068;55.780;37.520;2023-04-26T11:07:37;98554.03;;;15.62;71.06
61205;BME280;47068;55.780;37.520;2023-04-26T11:10:07;98555.53;;;15.76;70.33
61205;BME280;47068;55.780;37.520;2023-04-26T11:12:34;98566.53;;;15.86;68.35
61205;BME280;47068;55.780;37.520;2023-04-26T11:15:01;98541.22;;;15.82;67.84
61205;BME280;47068;55.780;37.520;2023-04-26T11:17:26;98426.72;;;15.16;67.75
61205;BME280;47068;55.780;37.520;2023-04-26T11:19:52;98573.47;;;16.24;67.84
61205;BME280;47068;55.780;37.520;2023-04-26T11:22:20;98549.22;;;16.30;67.38
61205;BME280;47068;55.780;37.520;2023-04-26T11:24:47;98566.22;;;16.54;67.12
61205;BME280;47068;55.780;37.520;2023-04-26T11:27:14;98571.06;;;16.64;67.08
61205;BME280;47068;55.780;37.520;2023-04-26T11:29:39;98548.06;;;16.68;67.41
61205;BME280;47068;55.780;37.520;2023-04-26T11:32:05;98565.63;;;16.93;66.05
61205;BME280;47068;55.780;37.520;2023-04-26T11:34:31;98577.81;;;17.08;65.44
61205;BME280;47068;55.780;37.520;2023-04-26T11:36:56;98586.56;;;17.15;64.38
61205;BME280;47068;55.780;37.520;2023-04-26T11:39:22;98560.72;;;16.90;63.36
61205;BME280;47068;55.780;37.520;2023-04-26T11:41:48;98588.50;;;16.84;62.72
61205;BME280;47068;55.780;37.520;2023-04-26T11:44:17;98586.63;;;16.85;63.21
61205;BME280;47068;55.780;37.520;2023-04-26T11:46:45;98594.59;;;16.80;63.54
61205;BME280;47068;55.780;37.520;2023-04-26T11:49:10;98590.81;;;16.81;63.90
61205;BME280;47068;55.780;37.520;2023-04-26T11:51:36;98583.34;;;16.83;63.24
61205;BME280;47068;55.780;37.520;2023-04-26T11:54:02;98589.56;;;16.83;64.16
61205;BME280;47068;55.780;37.520;2023-04-26T11:56:28;98596.00;;;16.94;64.03
61205;BME280;47068;55.780;37.520;2023-04-26T11:58:53;98604.53;;;16.91;63.96
61205;BME280;47068;55.780;37.520;2023-04-26T12:01:23;98604.72;;;16.78;64.00
61205;BME280;47068;55.780;37.520;2023-04-26T12:03:50;98612.16;;;16.64;64.81
61205;BME280;47068;55.780;37.520;2023-04-26T12:06:24;98609.78;;;16.56;64.95
61205;BME280;47068;55.780;37.520;2023-04-26T12:08:50;98604.91;;;16.35;64.98
61205;BME280;47068;55.780;37.520;2023-04-26T12:11:16;98614.09;;;16.27;64.80
61205;BME280;47068;55.780;37.520;2023-04-26T12:13:42;98627.53;;;16.09;65.27
61205;BME280;47068;55.780;37.520;2023-04-26T12:16:08;98618.66;;;16.08;64.87
61205;BME280;47068;55.780;37.520;2023-04-26T12:18:34;98601.31;;;15.93;65.78
61205;BME280;47068;55.780;37.520;2023-04-26T12:21:00;98576.72;;;15.77;66.57
61205;BME280;47068;55.780;37.520;2023-04-26T12:23:26;98592.44;;;15.92;66.98
61205;BME280;47068;55.780;37.520;2023-04-26T12:25:53;98612.47;;;16.08;67.12
61205;BME280;47068;55.780;37.520;2023-04-26T12:28:20;98621.44;;;16.02;66.89
61205;BME280;47068;55.780;37.520;2023-04-26T12:30:46;98631.22;;;15.96;65.62
61205;BME280;47068;55.780;37.520;2023-04-26T12:33:11;98621.94;;;15.92;64.94
61205;BME280;47068;55.780;37.520;2023-04-26T12:35:37;98628.53;;;15.96;64.54
61205;BME280;47068;55.780;37.520;2023-04-26T12:38:03;98618.75;;;16.02;64.55
61205;BME280;47068;55.780;37.520;2023-04-26T12:40:29;98614.03;;;16.15;63.80
61205;BME280;47068;55.780;37.520;2023-04-26T12:42:55;98615.38;;;16.25;62.75
61205;BME280;47068;55.780;37.520;2023-04-26T12:45:23;98616.78;;;16.27;62.18
61205;BME280;47068;55.780;37.520;2023-04-26T12:47:49;98613.44;;;16.32;61.35
61205;BME280;47068;55.780;37.520;2023-04-26T12:50:16;98618.63;;;16.45;60.75
61205;BME280;47068;55.780;37.520;2023-04-26T12:52:43;98591.47;;;16.35;60.79